Time;durP1;ratioP1;P1;durP2;ratioP2;P2;SDS_P1;SDS_P2;PMS_P1;PMS_P2;Temp;Humidity;BMP_temperature;BMP_pressure;BME280_temperature;BME280_humidity;BME280_pressure;Samples;Min_cycle;Max_cycle;Signal;HPM_P1;HPM_P2
2022/07/19 00:00:37;;;;;;;2.58;2.47;;;;;;;;;;5165937;27;20509;-69
2022/07/19 00:03:03;;;;;;;3.47;2.95;;;;;;;;;;5165820;27;20255;-69
2022/07/19 00:05:29;;;;;;;6.07;2.58;;;;;;;;;;5165565;27;20213;-69
2022/07/19 00:07:55;;;;;;;2.47;2.33;;;;;;;;;;5164732;27;20246;-69
2022/07/19 00:10:22;;;;;;;4.00;2.58;;;;;;;;;;5165810;27;20194;-69
2022/07/19 00:12:48;;;;;;;2.88;2.58;;;;;;;;;;5165531;27;20193;-69
2022/07/19 00:15:16;;;;;;;3.00;2.30;;;;;;;;;;5165709;27;20278;-69
2022/07/19 00:17:43;;;;;;;2.90;2.63;;;;;;;;;;5165358;27;20425;-69
2022/07/19 00:20:11;;;;;;;3.13;2.50;;;;;;;;;;5165154;27;20563;-69
2022/07/19 00:22:37;;;;;;;2.85;2.65;;;;;;;;;;5165523;27;20193;-69
2022/07/19 00:25:04;;;;;;;6.47;2.28;;;;;;;;;;5165401;27;20193;-69
2022/07/19 00:27:30;;;;;;;2.53;2.42;;;;;;;;;;5165162;27;20193;-69
2022/07/19 00:29:57;;;;;;;3.28;2.65;;;;;;;;;;5165351;27;20196;-69
2022/07/19 00:32:24;;;;;;;3.13;2.83;;;;;;;;;;5165196;27;20198;-69
2022/07/19 00:34:50;;;;;;;4.82;2.85;;;;;;;;;;5164958;27;20194;-69
2022/07/19 00:37:17;;;;;;;2.95;2.75;;;;;;;;;;5164999;27;20505;-69
2022/07/19 00:39:43;;;;;;;2.50;2.35;;;;;;;;;;5165002;27;20262;-69
2022/07/19 00:42:09;;;;;;;7.38;2.60;;;;;;;;;;5165012;27;20198;-69
2022/07/19 00:44:35;;;;;;;3.05;2.65;;;;;;;;;;5164877;27;20201;-69
2022/07/19 00:47:03;;;;;;;3.17;2.63;;;;;;;;;;5164675;27;20254;-69
2022/07/19 00:49:30;;;;;;;6.45;2.88;;;;;;;;;;5164815;27;20194;-69
2022/07/19 00:51:58;;;;;;;3.20;2.75;;;;;;;;;;5164952;27;20501;-69
2022/07/19 00:54:24;;;;;;;2.38;2.00;;;;;;;;;;5164693;27;20193;-69
2022/07/19 00:56:51;;;;;;;2.70;2.50;;;;;;;;;;5164569;27;20418;-69
2022/07/19 00:59:18;;;;;;;5.72;2.60;;;;;;;;;;5164429;27;20259;-69
2022/07/19 01:01:44;;;;;;;2.25;2.05;;;;;;;;;;5164624;27;20428;-69
2022/07/19 01:04:11;;;;;;;2.72;2.50;;;;;;;;;;5164892;27;20216;-69
2022/07/19 01:06:38;;;;;;;3.13;2.92;;;;;;;;;;5164022;27;20221;-69
2022/07/19 01:09:05;;;;;;;3.83;2.42;;;;;;;;;;5164624;27;20189;-69
2022/07/19 01:11:32;;;;;;;2.78;2.53;;;;;;;;;;5164593;27;20193;-69
2022/07/19 01:13:58;;;;;;;2.60;2.50;;;;;;;;;;5164488;27;20215;-69
2022/07/19 01:16:25;;;;;;;2.72;2.55;;;;;;;;;;5164155;27;20493;-69
2022/07/19 01:18:51;;;;;;;2.83;2.63;;;;;;;;;;5163920;27;20229;-69
2022/07/19 01:21:20;;;;;;;3.20;2.90;;;;;;;;;;5164272;27;20201;-69
2022/07/19 01:23:46;;;;;;;2.35;2.22;;;;;;;;;;5163462;27;20509;-69
2022/07/19 01:26:12;;;;;;;2.78;2.58;;;;;;;;;;5163995;27;20546;-69
2022/07/19 01:28:39;;;;;;;2.50;2.40;;;;;;;;;;5164297;27;20516;-69
2022/07/19 01:31:05;;;;;;;3.40;3.05;;;;;;;;;;5163994;27;20423;-69
2022/07/19 01:33:31;;;;;;;2.90;2.40;;;;;;;;;;5163837;27;20193;-69
2022/07/19 01:35:58;;;;;;;2.40;2.30;;;;;;;;;;5163608;27;20198;-69
2022/07/19 01:38:25;;;;;;;2.53;2.33;;;;;;;;;;5163695;27;20197;-69
2022/07/19 01:40:51;;;;;;;3.67;2.60;;;;;;;;;;5163771;27;20586;-69
2022/07/19 01:43:18;;;;;;;4.80;2.60;;;;;;;;;;5163955;27;20201;-69
2022/07/19 01:45:44;;;;;;;3.08;2.53;;;;;;;;;;5163960;27;20210;-69
2022/07/19 01:48:10;;;;;;;4.25;2.60;;;;;;;;;;5163603;27;20224;-69
2022/07/19 01:50:36;;;;;;;2.90;2.40;;;;;;;;;;5163768;27;20247;-69
2022/07/19 01:53:03;;;;;;;2.95;2.78;;;;;;;;;;5163622;27;20193;-69
2022/07/19 01:55:30;;;;;;;2.85;2.65;;;;;;;;;;5163930;27;20246;-69
2022/07/19 01:57:57;;;;;;;2.75;2.38;;;;;;;;;;5163519;27;20188;-69
2022/07/19 02:00:23;;;;;;;4.40;3.00;;;;;;;;;;5163657;27;20454;-68
2022/07/19 02:02:49;;;;;;;3.65;2.70;;;;;;;;;;5163741;27;20208;-69
2022/07/19 02:05:15;;;;;;;2.78;2.50;;;;;;;;;;5163424;27;20289;-69
2022/07/19 02:07:42;;;;;;;2.63;2.30;;;;;;;;;;5163160;27;20399;-69
2022/07/19 02:10:09;;;;;;;2.92;2.72;;;;;;;;;;5163938;27;20196;-69
2022/07/19 02:12:36;;;;;;;4.13;2.47;;;;;;;;;;5163577;27;20200;-69
2022/07/19 02:15:03;;;;;;;4.85;2.10;;;;;;;;;;5163597;27;20437;-69
2022/07/19 02:17:29;;;;;;;2.42;2.20;;;;;;;;;;5163112;27;20201;-69
2022/07/19 02:19:56;;;;;;;2.70;2.50;;;;;;;;;;5163290;27;20236;-69
2022/07/19 02:22:22;;;;;;;2.65;2.45;;;;;;;;;;5163634;27;20497;-69
2022/07/19 02:24:48;;;;;;;2.95;2.55;;;;;;;;;;5163613;27;20193;-69
2022/07/19 02:27:15;;;;;;;2.40;2.30;;;;;;;;;;5163313;27;20239;-69
2022/07/19 02:29:42;;;;;;;2.30;2.20;;;;;;;;;;5163521;27;20197;-69
2022/07/19 02:32:08;;;;;;;3.33;2.33;;;;;;;;;;5167261;27;20538;-69
2022/07/19 02:34:35;;;;;;;3.30;2.30;;;;;;;;;;5167044;27;20419;-69
2022/07/19 02:37:01;;;;;;;2.60;2.50;;;;;;;;;;5166844;27;20217;-69
2022/07/19 02:39:28;;;;;;;2.60;2.40;;;;;;;;;;5167366;27;20213;-69
2022/07/19 02:41:54;;;;;;;2.80;2.60;;;;;;;;;;5166960;27;20200;-69
2022/07/19 02:44:21;;;;;;;3.05;2.65;;;;;;;;;;5166952;27;20198;-69
2022/07/19 02:46:48;;;;;;;3.00;2.72;;;;;;;;;;5166925;27;20523;-69
2022/07/19 02:49:15;;;;;;;2.92;2.72;;;;;;;;;;5166791;27;20214;-69
2022/07/19 02:51:42;;;;;;;2.90;2.70;;;;;;;;;;5167177;27;20198;-69
2022/07/19 02:54:08;;;;;;;3.95;2.35;;;;;;;;;;5166971;27;20198;-69
2022/07/19 02:56:35;;;;;;;4.00;2.42;;;;;;;;;;5166547;27;20201;-69
2022/07/19 02:59:02;;;;;;;2.72;2.63;;;;;;;;;;5166788;27;20321;-69
2022/07/19 03:01:29;;;;;;;2.55;2.45;;;;;;;;;;5166607;27;20209;-69
2022/07/19 03:03:57;;;;;;;6.40;3.13;;;;;;;;;;5166434;27;20194;-69
2022/07/19 03:06:23;;;;;;;2.90;2.60;;;;;;;;;;5166330;27;20326;-69
2022/07/19 03:08:49;;;;;;;5.22;2.80;;;;;;;;;;5166665;27;20193;-69
2022/07/19 03:11:16;;;;;;;3.00;2.70;;;;;;;;;;5166578;27;20205;-69
2022/07/19 03:13:42;;;;;;;6.75;3.05;;;;;;;;;;5166596;27;20308;-69
2022/07/19 03:16:08;;;;;;;3.28;3.03;;;;;;;;;;5166657;27;20209;-69
2022/07/19 03:18:34;;;;;;;3.35;3.08;;;;;;;;;;5166180;27;20497;-68
2022/07/19 03:21:02;;;;;;;2.92;2.72;;;;;;;;;;5166469;27;20385;-68
2022/07/19 03:23:29;;;;;;;3.17;2.85;;;;;;;;;;5166322;27;20201;-68
2022/07/19 03:25:55;;;;;;;4.40;2.88;;;;;;;;;;5166307;27;20193;-68
2022/07/19 03:28:21;;;;;;;3.30;3.10;;;;;;;;;;5165992;27;20193;-68
2022/07/19 03:30:47;;;;;;;4.25;3.58;;;;;;;;;;5166118;27;20194;-68
2022/07/19 03:33:15;;;;;;;4.57;3.40;;;;;;;;;;5165962;27;20799;-68
2022/07/19 03:35:42;;;;;;;5.55;3.35;;;;;;;;;;5165998;27;20194;-68
2022/07/19 03:38:09;;;;;;;3.67;3.38;;;;;;;;;;5165816;27;20436;-68
2022/07/19 03:40:35;;;;;;;2.92;2.72;;;;;;;;;;5165817;27;20225;-68
2022/07/19 03:43:02;;;;;;;2.97;2.72;;;;;;;;;;5164982;27;20201;-68
2022/07/19 03:45:28;;;;;;;2.97;2.80;;;;;;;;;;5165889;27;20456;-68
2022/07/19 03:47:54;;;;;;;3.20;2.97;;;;;;;;;;5165617;27;20213;-68
2022/07/19 03:50:21;;;;;;;4.85;3.25;;;;;;;;;;5165638;27;20204;-68
2022/07/19 03:52:47;;;;;;;3.42;2.83;;;;;;;;;;5165798;27;20216;-68
2022/07/19 03:55:14;;;;;;;2.80;2.60;;;;;;;;;;5165858;27;20369;-69
2022/07/19 03:57:41;;;;;;;4.22;3.13;;;;;;;;;;5165510;27;20198;-69
2022/07/19 04:00:08;;;;;;;3.20;2.90;;;;;;;;;;5165261;27;20442;-69
2022/07/19 04:02:34;;;;;;;3.20;3.00;;;;;;;;;;5165394;27;20198;-68
2022/07/19 04:05:00;;;;;;;3.50;2.95;;;;;;;;;;5165309;27;20266;-69
2022/07/19 04:07:26;;;;;;;3.42;3.10;;;;;;;;;;5165168;27;20554;-69
2022/07/19 04:09:53;;;;;;;3.65;3.35;;;;;;;;;;5165365;27;20388;-69
2022/07/19 04:12:20;;;;;;;3.38;3.17;;;;;;;;;;5165555;27;20201;-69
2022/07/19 04:14:47;;;;;;;3.85;3.00;;;;;;;;;;5165060;27;20194;-69
2022/07/19 04:17:13;;;;;;;3.90;3.42;;;;;;;;;;5164857;27;20283;-67
2022/07/19 04:19:39;;;;;;;4.40;3.50;;;;;;;;;;5165260;27;20193;-67
2022/07/19 04:22:05;;;;;;;8.68;3.78;;;;;;;;;;5165220;27;20200;-67
2022/07/19 04:24:32;;;;;;;4.50;3.97;;;;;;;;;;5165090;27;20197;-67
2022/07/19 04:26:58;;;;;;;3.92;3.55;;;;;;;;;;5164743;27;20227;-67
2022/07/19 04:29:25;;;;;;;3.67;3.38;;;;;;;;;;5164849;27;20238;-67
2022/07/19 04:31:52;;;;;;;3.67;3.40;;;;;;;;;;5164956;27;20201;-67
2022/07/19 04:34:18;;;;;;;3.75;3.47;;;;;;;;;;5165109;27;20231;-67
2022/07/19 04:36:44;;;;;;;3.67;3.38;;;;;;;;;;5164979;27;20197;-67
2022/07/19 04:39:10;;;;;;;3.65;3.35;;;;;;;;;;5164841;27;20201;-67
2022/07/19 04:41:37;;;;;;;4.53;3.47;;;;;;;;;;5164664;27;20218;-67
2022/07/19 04:44:03;;;;;;;3.88;3.55;;;;;;;;;;5164657;27;20208;-67
2022/07/19 04:46:31;;;;;;;6.75;3.60;;;;;;;;;;5164587;27;20194;-67
2022/07/19 04:48:57;;;;;;;6.22;2.97;;;;;;;;;;5164692;27;20204;-67
2022/07/19 04:51:23;;;;;;;5.45;3.42;;;;;;;;;;5164622;27;20197;-67
2022/07/19 04:53:49;;;;;;;2.90;2.70;;;;;;;;;;5164458;27;20193;-67
2022/07/19 04:56:16;;;;;;;3.80;3.45;;;;;;;;;;5164112;27;20260;-67
2022/07/19 04:58:42;;;;;;;5.60;3.55;;;;;;;;;;5164603;27;20245;-67
2022/07/19 05:01:08;;;;;;;3.80;3.45;;;;;;;;;;5164384;27;20238;-67
2022/07/19 05:03:36;;;;;;;3.90;3.60;;;;;;;;;;5164381;27;20201;-67
2022/07/19 05:06:02;;;;;;;3.95;3.03;;;;;;;;;;5164306;27;20221;-67
2022/07/19 05:08:28;;;;;;;3.78;3.05;;;;;;;;;;5164158;27;20197;-67
2022/07/19 05:10:55;;;;;;;5.90;3.05;;;;;;;;;;5161308;27;20234;-59
2022/07/19 05:13:21;;;;;;;7.65;3.67;;;;;;;;;;5148388;27;20398;-60
2022/07/19 05:15:47;;;;;;;7.32;3.60;;;;;;;;;;5151152;27;20217;-60
2022/07/19 05:18:13;;;;;;;6.07;3.55;;;;;;;;;;5144688;27;20719;-60
2022/07/19 05:20:41;;;;;;;3.75;3.45;;;;;;;;;;5150404;27;20221;-60
2022/07/19 05:23:08;;;;;;;4.10;3.65;;;;;;;;;;5154061;27;21087;-60
2022/07/19 05:25:34;;;;;;;7.43;3.60;;;;;;;;;;5144838;27;20206;-60
2022/07/19 05:28:01;;;;;;;6.63;3.70;;;;;;;;;;5150948;27;20225;-60
2022/07/19 05:30:27;;;;;;;4.32;3.38;;;;;;;;;;5155824;27;20229;-61
2022/07/19 05:32:53;;;;;;;4.40;4.00;;;;;;;;;;5141913;27;20206;-61
2022/07/19 05:35:19;;;;;;;9.95;3.83;;;;;;;;;;5135111;27;20217;-61
2022/07/19 05:37:47;;;;;;;5.22;3.90;;;;;;;;;;5148304;27;20210;-61
2022/07/19 05:40:13;;;;;;;6.22;4.03;;;;;;;;;;5135086;27;20722;-61
2022/07/19 05:42:40;;;;;;;5.55;4.40;;;;;;;;;;5135221;27;20209;-61
2022/07/19 05:45:06;;;;;;;9.20;3.70;;;;;;;;;;5137036;27;20237;-60
2022/07/19 05:47:33;;;;;;;7.20;3.78;;;;;;;;;;5155200;27;20212;-60
2022/07/19 05:49:59;;;;;;;4.57;4.10;;;;;;;;;;5155971;27;20235;-61
2022/07/19 05:52:26;;;;;;;9.25;3.85;;;;;;;;;;5144849;27;20232;-61
2022/07/19 05:54:53;;;;;;;6.10;3.90;;;;;;;;;;5134650;27;20210;-61
2022/07/19 05:57:19;;;;;;;6.22;3.25;;;;;;;;;;5134958;27;20217;-60
2022/07/19 05:59:46;;;;;;;6.85;4.38;;;;;;;;;;5136669;27;20231;-61
2022/07/19 06:02:12;;;;;;;5.22;4.32;;;;;;;;;;5142392;27;20581;-61
2022/07/19 06:04:38;;;;;;;5.15;3.97;;;;;;;;;;5135185;27;20224;-61
2022/07/19 06:07:05;;;;;;;12.65;3.85;;;;;;;;;;5142425;27;20240;-61
2022/07/19 06:09:31;;;;;;;4.55;3.92;;;;;;;;;;5152529;27;20205;-60
2022/07/19 06:11:59;;;;;;;12.20;4.03;;;;;;;;;;5159315;27;20588;-60
2022/07/19 06:14:25;;;;;;;12.75;3.83;;;;;;;;;;5155992;27;20202;-60
2022/07/19 06:16:53;;;;;;;9.25;3.83;;;;;;;;;;5138597;27;20210;-60
2022/07/19 06:19:19;;;;;;;9.10;3.72;;;;;;;;;;5139865;27;20518;-61
2022/07/19 06:21:45;;;;;;;6.13;3.53;;;;;;;;;;5153100;27;20237;-61
2022/07/19 06:24:12;;;;;;;7.95;3.60;;;;;;;;;;5151950;27;20210;-60
2022/07/19 06:26:38;;;;;;;5.13;4.03;;;;;;;;;;5159183;27;20217;-60
2022/07/19 06:29:06;;;;;;;5.40;3.20;;;;;;;;;;5143411;27;20210;-60
2022/07/19 06:31:32;;;;;;;5.60;3.58;;;;;;;;;;5146482;27;20213;-61
2022/07/19 06:33:59;;;;;;;6.35;3.45;;;;;;;;;;5158408;27;20562;-61
2022/07/19 06:36:25;;;;;;;6.35;3.67;;;;;;;;;;5158709;27;20217;-61
2022/07/19 06:38:51;;;;;;;4.20;3.22;;;;;;;;;;5158881;27;20254;-61
2022/07/19 06:41:17;;;;;;;13.57;3.55;;;;;;;;;;5158692;27;20556;-61
2022/07/19 06:43:44;;;;;;;7.40;3.45;;;;;;;;;;5158323;27;20250;-60
2022/07/19 06:46:11;;;;;;;4.18;3.03;;;;;;;;;;5140974;27;20217;-59
2022/07/19 06:48:38;;;;;;;8.85;3.30;;;;;;;;;;5137821;27;20210;-61
2022/07/19 06:51:05;;;;;;;5.20;3.67;;;;;;;;;;5138700;27;20206;-60
2022/07/19 06:53:32;;;;;;;11.30;3.63;;;;;;;;;;5137746;27;20233;-60
2022/07/19 06:55:58;;;;;;;5.60;3.03;;;;;;;;;;5145047;27;20217;-62
2022/07/19 06:58:25;;;;;;;9.98;3.25;;;;;;;;;;5158599;27;20570;-62
2022/07/19 07:00:51;;;;;;;6.40;3.35;;;;;;;;;;5147794;27;20230;-62
2022/07/19 07:03:19;;;;;;;5.43;3.20;;;;;;;;;;5151764;27;20297;-62
2022/07/19 07:05:45;;;;;;;3.75;3.40;;;;;;;;;;5152429;27;20226;-60
2022/07/19 07:08:12;;;;;;;5.00;2.70;;;;;;;;;;5140049;27;20213;-60
2022/07/19 07:10:39;;;;;;;8.73;3.17;;;;;;;;;;5138074;27;20206;-60
2022/07/19 07:13:06;;;;;;;4.38;3.00;;;;;;;;;;5141089;27;20209;-61
2022/07/19 07:15:32;;;;;;;7.35;3.00;;;;;;;;;;5154388;27;20202;-61
2022/07/19 07:17:58;;;;;;;6.78;3.03;;;;;;;;;;5147397;27;20213;-61
2022/07/19 07:20:26;;;;;;;3.72;3.00;;;;;;;;;;5151638;27;20214;-61
2022/07/19 07:22:52;;;;;;;5.43;3.15;;;;;;;;;;5139414;27;20217;-61
2022/07/19 07:25:19;;;;;;;6.00;2.97;;;;;;;;;;5157901;27;20201;-60
2022/07/19 07:27:45;;;;;;;7.43;3.17;;;;;;;;;;5149378;27;20251;-61
2022/07/19 07:30:11;;;;;;;3.58;3.28;;;;;;;;;;5144691;27;20255;-61
2022/07/19 07:32:37;;;;;;;6.00;2.90;;;;;;;;;;5137406;27;20266;-62
2022/07/19 07:35:04;;;;;;;7.53;3.53;;;;;;;;;;5137801;27;20254;-62
2022/07/19 07:37:32;;;;;;;4.20;2.92;;;;;;;;;;5152708;27;20213;-62
2022/07/19 07:39:58;;;;;;;7.60;2.95;;;;;;;;;;5149059;27;20282;-62
2022/07/19 07:42:25;;;;;;;12.05;2.92;;;;;;;;;;5156075;27;20224;-62
2022/07/19 07:44:51;;;;;;;9.65;2.97;;;;;;;;;;5152302;27;20209;-61
2022/07/19 07:47:17;;;;;;;6.50;2.97;;;;;;;;;;5157774;27;20213;-62
2022/07/19 07:49:43;;;;;;;5.70;2.67;;;;;;;;;;5158069;27;20224;-62
2022/07/19 07:52:10;;;;;;;3.03;2.80;;;;;;;;;;5144379;27;20217;-63
2022/07/19 07:54:38;;;;;;;5.53;2.42;;;;;;;;;;5150057;27;20694;-62
2022/07/19 07:57:04;;;;;;;3.85;2.50;;;;;;;;;;5137135;27;20439;-62
2022/07/19 07:59:30;;;;;;;8.50;2.63;;;;;;;;;;5136503;27;20210;-61
2022/07/19 08:01:57;;;;;;;5.07;2.88;;;;;;;;;;5136432;27;20237;-61
2022/07/19 08:04:23;;;;;;;5.97;2.63;;;;;;;;;;5139709;27;20408;-62
2022/07/19 08:06:49;;;;;;;4.65;2.30;;;;;;;;;;5148238;27;20240;-61
2022/07/19 08:09:15;;;;;;;6.60;2.53;;;;;;;;;;5141222;27;20201;-61
2022/07/19 08:11:43;;;;;;;8.23;2.35;;;;;;;;;;5147605;27;20505;-61
2022/07/19 08:14:09;;;;;;;6.45;2.50;;;;;;;;;;5154091;27;20208;-61
2022/07/19 08:16:35;;;;;;;5.28;2.15;;;;;;;;;;5140557;27;20445;-62
2022/07/19 08:19:02;;;;;;;4.60;2.25;;;;;;;;;;5152044;27;20390;-62
2022/07/19 08:21:28;;;;;;;6.75;2.35;;;;;;;;;;5156294;27;20221;-61
2022/07/19 08:23:54;;;;;;;4.07;2.30;;;;;;;;;;5156711;27;20209;-63
2022/07/19 08:26:22;;;;;;;4.88;2.40;;;;;;;;;;5141934;27;20216;-62
2022/07/19 08:28:49;;;;;;;3.85;1.80;;;;;;;;;;5138116;27;20210;-62
2022/07/19 08:31:16;;;;;;;6.60;1.83;;;;;;;;;;5157132;27;20209;-62
2022/07/19 08:33:42;;;;;;;2.05;1.63;;;;;;;;;;5157083;27;20209;-61
2022/07/19 08:36:09;;;;;;;2.05;1.95;;;;;;;;;;5157116;27;20212;-62
2022/07/19 08:38:35;;;;;;;2.83;1.60;;;;;;;;;;5153198;27;20534;-63
2022/07/19 08:41:02;;;;;;;2.35;1.42;;;;;;;;;;5135798;27;20657;-63
2022/07/19 08:43:28;;;;;;;4.45;1.73;;;;;;;;;;5134950;27;21119;-62
2022/07/19 08:45:58;;;;;;;1.95;1.80;;;;;;;;;;5144761;27;20217;-63
2022/07/19 08:48:24;;;;;;;5.35;2.08;;;;;;;;;;5136278;27;20560;-62
2022/07/19 08:50:51;;;;;;;2.40;2.30;;;;;;;;;;5135468;27;20217;-63
2022/07/19 08:53:17;;;;;;;1.65;1.23;;;;;;;;;;5144138;27;20209;-62
2022/07/19 08:55:43;;;;;;;2.30;2.10;;;;;;;;;;5149171;27;20218;-63
2022/07/19 08:58:09;;;;;;;2.40;2.00;;;;;;;;;;5135593;27;20214;-64
2022/07/19 09:00:35;;;;;;;3.25;2.90;;;;;;;;;;5136767;27;20212;-63
2022/07/19 09:03:04;;;;;;;5.22;1.80;;;;;;;;;;5135034;27;20226;-63
2022/07/19 09:05:31;;;;;;;5.35;3.40;;;;;;;;;;5135611;27;20233;-61
2022/07/19 09:08:01;;;;;;;2.22;2.10;;;;;;;;;;5136616;27;21160;-62
2022/07/19 09:10:28;;;;;;;5.30;3.85;;;;;;;;;;5139853;27;20206;-63
2022/07/19 09:13:01;;;;;;;3.80;3.40;;;;;;;;;;5134940;27;20206;-61
2022/07/19 09:15:37;;;;;;;4.00;2.83;;;;;;;;;;5135629;27;20254;-63
2022/07/19 09:18:09;;;;;;;9.82;3.83;;;;;;;;;;5136275;27;20216;-61
2022/07/19 09:20:35;;;;;;;2.72;2.10;;;;;;;;;;5136063;27;20222;-61
2022/07/19 09:23:01;;;;;;;4.53;2.70;;;;;;;;;;5135311;27;20269;-60
2022/07/19 09:25:35;;;;;;;3.28;2.95;;;;;;;;;;5135022;27;20213;-62
2022/07/19 09:28:01;;;;;;;3.30;2.22;;;;;;;;;;5152662;27;20217;-60
2022/07/19 09:30:36;;;;;;;2.40;2.28;;;;;;;;;;5135847;27;20399;-62
2022/07/19 09:33:07;;;;;;;4.82;1.90;;;;;;;;;;5135031;27;20208;-62
2022/07/19 09:35:38;;;;;;;1.90;1.80;;;;;;;;;;5134728;27;20219;-63
2022/07/19 09:38:21;;;;;;;2.88;1.85;;;;;;;;;;5135753;27;20447;-63
2022/07/19 09:40:48;;;;;;;6.18;1.95;;;;;;;;;;5134775;27;20520;-63
2022/07/19 09:43:14;;;;;;;3.42;1.67;;;;;;;;;;5134139;27;20450;-63
2022/07/19 09:45:40;;;;;;;1.90;1.80;;;;;;;;;;5134842;27;20284;-63
2022/07/19 09:48:07;;;;;;;5.18;2.10;;;;;;;;;;5135360;27;20216;-65
2022/07/19 09:50:33;;;;;;;2.05;1.95;;;;;;;;;;5135273;27;20213;-63
2022/07/19 09:53:02;;;;;;;2.95;2.20;;;;;;;;;;5135006;27;20283;-62
2022/07/19 09:55:29;;;;;;;2.92;1.85;;;;;;;;;;5134866;27;20202;-61
2022/07/19 09:57:57;;;;;;;1.80;1.52;;;;;;;;;;5148209;27;20551;-62
2022/07/19 10:00:25;;;;;;;2.40;1.75;;;;;;;;;;5146694;27;20271;-62
2022/07/19 10:02:52;;;;;;;2.50;1.80;;;;;;;;;;5142293;27;20452;-74
2022/07/19 10:05:20;;;;;;;2.08;1.88;;;;;;;;;;5143071;27;20221;-73
2022/07/19 10:07:46;;;;;;;3.65;1.70;;;;;;;;;;5155665;27;20455;-73
2022/07/19 10:10:15;;;;;;;5.20;1.58;;;;;;;;;;5144352;27;20592;-72
2022/07/19 10:12:43;;;;;;;7.78;1.80;;;;;;;;;;5155663;27;20205;-72
2022/07/19 10:15:10;;;;;;;2.30;2.10;;;;;;;;;;5151607;27;20232;-72
2022/07/19 10:17:38;;;;;;;3.92;2.00;;;;;;;;;;5139280;27;20212;-73
2022/07/19 10:20:06;;;;;;;6.22;2.10;;;;;;;;;;5136303;27;20500;-72
2022/07/19 10:22:32;;;;;;;2.78;2.10;;;;;;;;;;5147923;27;20587;-72
2022/07/19 10:24:59;;;;;;;3.30;1.85;;;;;;;;;;5143223;27;20228;-72
2022/07/19 10:27:37;;;;;;;2.30;2.10;;;;;;;;;;5155687;27;20216;-72
2022/07/19 10:30:23;;;;;;;3.50;1.80;;;;;;;;;;5156269;27;20413;-72
2022/07/19 10:32:50;;;;;;;2.88;1.95;;;;;;;;;;5154557;27;20205;-72
2022/07/19 10:35:17;;;;;;;4.88;1.95;;;;;;;;;;5147908;27;20217;-73
2022/07/19 10:37:45;;;;;;;4.82;1.77;;;;;;;;;;5148998;27;20231;-72
2022/07/19 10:40:11;;;;;;;1.85;1.70;;;;;;;;;;5152841;27;20209;-73
2022/07/19 10:42:59;;;;;;;1.90;1.80;;;;;;;;;;5138840;27;20351;-72
2022/07/19 10:45:25;;;;;;;1.75;1.73;;;;;;;;;;5150428;27;20521;-72
2022/07/19 10:48:05;;;;;;;5.00;2.35;;;;;;;;;;5141026;27;20465;-72
2022/07/19 10:50:45;;;;;;;2.58;2.10;;;;;;;;;;5142261;27;20715;-72
2022/07/19 10:53:11;;;;;;;2.95;1.98;;;;;;;;;;5141041;27;20551;-72
2022/07/19 10:55:37;;;;;;;2.97;1.88;;;;;;;;;;5147164;27;20742;-71
2022/07/19 10:58:11;;;;;;;2.22;1.85;;;;;;;;;;5137998;27;20212;-72
2022/07/19 11:00:42;;;;;;;2.00;1.90;;;;;;;;;;5155577;27;20209;-72
2022/07/19 11:03:26;;;;;;;2.00;1.90;;;;;;;;;;5158144;27;20225;-72
2022/07/19 11:05:53;;;;;;;2.30;2.10;;;;;;;;;;5156286;27;20248;-72
2022/07/19 11:08:30;;;;;;;4.28;2.22;;;;;;;;;;5142558;27;20213;-72
2022/07/19 11:11:02;;;;;;;2.22;1.70;;;;;;;;;;5154212;27;20529;-74
2022/07/19 11:13:29;;;;;;;2.28;1.77;;;;;;;;;;5158438;27;20213;-74
2022/07/19 11:15:56;;;;;;;3.25;2.03;;;;;;;;;;5158122;27;20233;-72
2022/07/19 11:18:22;;;;;;;3.72;2.08;;;;;;;;;;5156528;27;20209;-71
2022/07/19 11:20:49;;;;;;;4.47;1.92;;;;;;;;;;5152053;27;20231;-73
2022/07/19 11:23:18;;;;;;;1.90;1.80;;;;;;;;;;5140949;27;20237;-71
2022/07/19 11:25:46;;;;;;;5.60;2.17;;;;;;;;;;5158846;27;20235;-73
2022/07/19 11:28:20;;;;;;;2.97;1.80;;;;;;;;;;5140695;27;20513;-73
2022/07/19 11:30:47;;;;;;;4.88;2.00;;;;;;;;;;5147082;27;20209;-73
2022/07/19 11:33:16;;;;;;;4.28;2.42;;;;;;;;;;5158523;27;20262;-74
2022/07/19 11:35:52;;;;;;;4.07;1.90;;;;;;;;;;5157910;27;20250;-74
2022/07/19 11:38:19;;;;;;;5.95;2.35;;;;;;;;;;5145305;27;20213;-74
2022/07/19 11:40:45;;;;;;;6.00;2.40;;;;;;;;;;5137519;27;20210;-73
2022/07/19 11:43:11;;;;;;;3.65;2.17;;;;;;;;;;5154649;27;20233;-74
2022/07/19 11:45:41;;;;;;;3.45;2.00;;;;;;;;;;5158305;27;20209;-72
2022/07/19 11:48:09;;;;;;;2.60;2.10;;;;;;;;;;5137972;27;20221;-73
2022/07/19 11:50:35;;;;;;;2.05;1.92;;;;;;;;;;5137208;27;20209;-72
2022/07/19 11:53:02;;;;;;;5.22;1.90;;;;;;;;;;5145382;27;20202;-74
2022/07/19 11:55:29;;;;;;;4.07;2.20;;;;;;;;;;5140016;27;20205;-73
2022/07/19 11:57:55;;;;;;;4.22;1.80;;;;;;;;;;5142060;27;20216;-74
2022/07/19 12:00:22;;;;;;;2.65;1.90;;;;;;;;;;5136986;27;20544;-72
2022/07/19 12:03:07;;;;;;;3.60;2.00;;;;;;;;;;5148321;27;20602;-72
2022/07/19 12:05:36;;;;;;;5.68;2.05;;;;;;;;;;5146875;27;20248;-73
2022/07/19 12:08:03;;;;;;;3.70;2.03;;;;;;;;;;5150485;27;20224;-72
2022/07/19 12:10:36;;;;;;;4.55;1.77;;;;;;;;;;5141537;27;20214;-71
2022/07/19 12:13:03;;;;;;;4.03;1.75;;;;;;;;;;5156812;27;20354;-71
2022/07/19 12:15:43;;;;;;;5.00;2.30;;;;;;;;;;5156895;27;20772;-71
2022/07/19 12:18:09;;;;;;;6.68;2.00;;;;;;;;;;5153610;27;20216;-70
2022/07/19 12:20:37;;;;;;;4.00;2.13;;;;;;;;;;5157528;27;20209;-71
2022/07/19 12:23:11;;;;;;;2.08;1.90;;;;;;;;;;5152965;27;20229;-71
2022/07/19 12:25:38;;;;;;;4.53;1.95;;;;;;;;;;5137213;27;20209;-69
2022/07/19 12:28:04;;;;;;;5.68;2.15;;;;;;;;;;5136607;27;20214;-69
2022/07/19 12:30:31;;;;;;;4.47;1.90;;;;;;;;;;5136414;27;20218;-68
2022/07/19 12:33:06;;;;;;;8.43;1.80;;;;;;;;;;5148595;27;20210;-68
2022/07/19 12:35:42;;;;;;;2.15;1.95;;;;;;;;;;5148551;27;20520;-67
2022/07/19 12:38:11;;;;;;;2.78;2.15;;;;;;;;;;5140252;27;20533;-68
2022/07/19 12:40:37;;;;;;;2.35;2.03;;;;;;;;;;5157660;27;20209;-68
2022/07/19 12:43:04;;;;;;;6.47;2.13;;;;;;;;;;5156449;27;20231;-68
2022/07/19 12:45:31;;;;;;;3.05;1.98;;;;;;;;;;5156901;27;20209;-68
2022/07/19 12:47:58;;;;;;;4.72;2.05;;;;;;;;;;5145227;27;20237;-68
2022/07/19 12:50:25;;;;;;;3.03;1.83;;;;;;;;;;5135908;27;20403;-68
2022/07/19 12:52:53;;;;;;;5.25;1.80;;;;;;;;;;5146513;27;20205;-68
2022/07/19 12:55:20;;;;;;;3.55;2.10;;;;;;;;;;5156685;27;20209;-69
2022/07/19 12:57:46;;;;;;;6.43;1.95;;;;;;;;;;5143985;27;20610;-69
2022/07/19 13:00:13;;;;;;;2.45;1.85;;;;;;;;;;5156571;27;20231;-68
2022/07/19 13:02:40;;;;;;;3.55;1.67;;;;;;;;;;5156468;27;20240;-69
2022/07/19 13:05:06;;;;;;;7.53;2.05;;;;;;;;;;5152923;27;20297;-69
2022/07/19 13:07:33;;;;;;;4.13;1.67;;;;;;;;;;5135601;27;20270;-69
2022/07/19 13:10:00;;;;;;;6.32;1.80;;;;;;;;;;5138688;27;20436;-69
2022/07/19 13:12:26;;;;;;;4.63;1.98;;;;;;;;;;5137731;27;20399;-68
2022/07/19 13:14:53;;;;;;;2.10;1.63;;;;;;;;;;5152990;27;20474;-68
2022/07/19 13:17:19;;;;;;;4.15;1.83;;;;;;;;;;5139654;27;20202;-68
2022/07/19 13:19:45;;;;;;;3.92;1.90;;;;;;;;;;5135703;27;20266;-69
2022/07/19 13:22:12;;;;;;;5.63;1.75;;;;;;;;;;5140193;27;20234;-69
2022/07/19 13:24:39;;;;;;;8.20;1.63;;;;;;;;;;5151328;27;20469;-68
2022/07/19 13:27:07;;;;;;;3.50;2.10;;;;;;;;;;5148920;27;20216;-68
2022/07/19 13:29:34;;;;;;;3.25;1.70;;;;;;;;;;5156661;27;20213;-68
2022/07/19 13:32:00;;;;;;;6.85;2.17;;;;;;;;;;5139080;27;20694;-69
2022/07/19 13:34:27;;;;;;;3.63;1.50;;;;;;;;;;5149120;27;20210;-68
2022/07/19 13:36:53;;;;;;;3.10;1.75;;;;;;;;;;5147545;27;20421;-68
2022/07/19 13:39:19;;;;;;;8.30;1.73;;;;;;;;;;5141795;27;20232;-68
2022/07/19 13:41:46;;;;;;;4.18;2.00;;;;;;;;;;5155882;27;20547;-68
2022/07/19 13:44:13;;;;;;;3.45;1.63;;;;;;;;;;5150949;27;20552;-68
2022/07/19 13:46:39;;;;;;;3.67;1.75;;;;;;;;;;5136401;27;20526;-69
2022/07/19 13:49:06;;;;;;;5.18;1.90;;;;;;;;;;5152688;27;20216;-70
2022/07/19 13:51:32;;;;;;;3.88;2.28;;;;;;;;;;5139861;27;20225;-70
2022/07/19 13:53:59;;;;;;;4.53;1.75;;;;;;;;;;5141502;27;21174;-70
2022/07/19 13:56:25;;;;;;;4.47;2.38;;;;;;;;;;5149106;27;20544;-70
2022/07/19 13:58:51;;;;;;;3.92;1.98;;;;;;;;;;5139780;27;20548;-72
2022/07/19 14:01:19;;;;;;;3.20;1.65;;;;;;;;;;5135373;27;20634;-70
2022/07/19 14:03:46;;;;;;;5.63;2.10;;;;;;;;;;5134254;27;20229;-72
2022/07/19 14:06:12;;;;;;;4.45;2.10;;;;;;;;;;5147762;27;20221;-70
2022/07/19 14:08:39;;;;;;;4.68;2.55;;;;;;;;;;5138097;27;20510;-70
2022/07/19 14:11:05;;;;;;;4.38;2.22;;;;;;;;;;5135872;27;20439;-70
2022/07/19 14:13:33;;;;;;;2.50;1.95;;;;;;;;;;5139411;27;20432;-70
2022/07/19 14:16:00;;;;;;;3.75;2.08;;;;;;;;;;5141980;27;20209;-70
2022/07/19 14:18:28;;;;;;;6.13;1.83;;;;;;;;;;5138454;27;20237;-72
2022/07/19 14:20:54;;;;;;;2.22;2.03;;;;;;;;;;5144480;27;20575;-70
2022/07/19 14:23:20;;;;;;;4.80;2.10;;;;;;;;;;5148294;27;20233;-70
2022/07/19 14:25:47;;;;;;;5.00;2.15;;;;;;;;;;5153934;27;20605;-70
2022/07/19 14:28:13;;;;;;;1.77;1.60;;;;;;;;;;5138161;27;20216;-70
2022/07/19 14:30:39;;;;;;;5.72;1.80;;;;;;;;;;5147695;27;20251;-70
2022/07/19 14:33:05;;;;;;;2.88;1.63;;;;;;;;;;5159243;27;20216;-70
2022/07/19 14:35:33;;;;;;;7.22;1.88;;;;;;;;;;5142564;27;20401;-70
2022/07/19 14:37:59;;;;;;;4.85;1.88;;;;;;;;;;5141286;27;20220;-70
2022/07/19 14:40:26;;;;;;;7.38;2.00;;;;;;;;;;5150713;27;20391;-70
2022/07/19 14:42:52;;;;;;;6.65;2.17;;;;;;;;;;5156712;27;20211;-70